Lima, Ohio
Current Conditions -  °F | °C
As of 11:25 AM on Sunday 25 Jan 2015 (Local Time) from KAOH Reporting Station
Light Snow Light Snow  
Wind Chill: 21°   Ceiling: 500
Heat Index: 32°   Visibility: 2.5mi
Dew Point: 29°   Wind: 17mph
Humidity: 88%   Direction: 60°ENE
Pressure: 29.77"   Gusts: 25mph
Location:  40.74°N, 84.11°W
Report Text: KAOH 251625Z AUTO 06015G22KT 2 1/2SM -SN BR OVC005 00/M02 A2977 RMK AO2 P0000 T00001017
Loading
Personal Weather Stations






























Interactive Weather Map New forecast layout! Learn more

10-Day Weather Forecast

Advertisements
Track Severe Weather on mobile